sensor_id;sensor_type;location;lat;lon;timestamp;pressure;altitude;pressure_sealevel;temperature;humidity
33286;BME280;19656;50.096;20.014;2024-01-30T00:04:12;100903.11;;;2.02;69.12
33286;BME280;19656;50.096;20.014;2024-01-30T00:09:15;100899.30;;;2.07;69.11
33286;BME280;19656;50.096;20.014;2024-01-30T00:14:18;100890.38;;;2.13;68.87
33286;BME280;19656;50.096;20.014;2024-01-30T00:19:21;100891.09;;;2.17;68.80
33286;BME280;19656;50.096;20.014;2024-01-30T00:24:25;100890.91;;;2.21;68.84
33286;BME280;19656;50.096;20.014;2024-01-30T00:29:28;100895.46;;;2.21;68.65
33286;BME280;19656;50.096;20.014;2024-01-30T00:34:33;100896.86;;;2.19;68.48
33286;BME280;19656;50.096;20.014;2024-01-30T00:39:37;100891.95;;;2.08;68.79
33286;BME280;19656;50.096;20.014;2024-01-30T00:44:40;100890.72;;;2.07;68.87
33286;BME280;19656;50.096;20.014;2024-01-30T00:49:43;100890.35;;;2.05;68.75
33286;BME280;19656;50.096;20.014;2024-01-30T00:54:47;100888.26;;;2.01;68.90
33286;BME280;19656;50.096;20.014;2024-01-30T00:59:50;100883.69;;;1.95;68.89
33286;BME280;19656;50.096;20.014;2024-01-30T01:04:53;100879.29;;;1.89;68.99
33286;BME280;19656;50.096;20.014;2024-01-30T01:09:56;100873.52;;;1.92;69.08
33286;BME280;19656;50.096;20.014;2024-01-30T01:14:59;100874.73;;;1.87;69.04
33286;BME280;19656;50.096;20.014;2024-01-30T01:20:04;100872.96;;;1.83;69.04
33286;BME280;19656;50.096;20.014;2024-01-30T01:25:08;100873.32;;;1.81;69.20
33286;BME280;19656;50.096;20.014;2024-01-30T01:30:13;100871.03;;;1.81;69.09
33286;BME280;19656;50.096;20.014;2024-01-30T01:35:24;100865.77;;;1.78;68.92
33286;BME280;19656;50.096;20.014;2024-01-30T01:40:28;100861.73;;;1.73;68.89
33286;BME280;19656;50.096;20.014;2024-01-30T01:45:31;100864.38;;;1.74;68.97
33286;BME280;19656;50.096;20.014;2024-01-30T01:50:35;100864.35;;;1.70;68.72
33286;BME280;19656;50.096;20.014;2024-01-30T01:55:39;100868.89;;;1.66;68.76
33286;BME280;19656;50.096;20.014;2024-01-30T02:00:42;100870.27;;;1.61;68.71
33286;BME280;19656;50.096;20.014;2024-01-30T02:05:46;100863.77;;;1.57;68.90
33286;BME280;19656;50.096;20.014;2024-01-30T02:10:49;100854.33;;;1.58;69.01
33286;BME280;19656;50.096;20.014;2024-01-30T02:15:53;100848.95;;;1.64;68.82
33286;BME280;19656;50.096;20.014;2024-01-30T02:20:56;100850.02;;;1.76;68.69
33286;BME280;19656;50.096;20.014;2024-01-30T02:26:01;100845.30;;;1.77;68.41
33286;BME280;19656;50.096;20.014;2024-01-30T02:31:05;100847.38;;;1.73;68.43
33286;BME280;19656;50.096;20.014;2024-01-30T02:36:08;100846.69;;;1.75;68.40
33286;BME280;19656;50.096;20.014;2024-01-30T02:41:11;100842.84;;;1.73;68.18
33286;BME280;19656;50.096;20.014;2024-01-30T02:46:15;100830.38;;;1.61;68.10
33286;BME280;19656;50.096;20.014;2024-01-30T02:51:18;100824.09;;;1.60;68.22
33286;BME280;19656;50.096;20.014;2024-01-30T02:56:21;100823.20;;;1.58;68.34
33286;BME280;19656;50.096;20.014;2024-01-30T03:01:25;100823.55;;;1.56;68.15
33286;BME280;19656;50.096;20.014;2024-01-30T03:06:28;100823.52;;;1.52;68.30
33286;BME280;19656;50.096;20.014;2024-01-30T03:11:31;100817.39;;;1.48;68.22
33286;BME280;19656;50.096;20.014;2024-01-30T03:16:34;100821.73;;;1.43;68.47
33286;BME280;19656;50.096;20.014;2024-01-30T03:21:37;100829.42;;;1.39;68.33
33286;BME280;19656;50.096;20.014;2024-01-30T03:26:41;100829.59;;;1.36;68.53
33286;BME280;19656;50.096;20.014;2024-01-30T03:31:44;100825.75;;;1.36;68.38
33286;BME280;19656;50.096;20.014;2024-01-30T03:36:47;100830.11;;;1.35;68.48
33286;BME280;19656;50.096;20.014;2024-01-30T03:41:51;100834.65;;;1.33;68.27
33286;BME280;19656;50.096;20.014;2024-01-30T03:46:54;100832.53;;;1.31;68.21
33286;BME280;19656;50.096;20.014;2024-01-30T03:51:57;100829.73;;;1.31;68.09
33286;BME280;19656;50.096;20.014;2024-01-30T03:57:00;100824.30;;;1.27;68.02
33286;BME280;19656;50.096;20.014;2024-01-30T04:02:03;100820.61;;;1.21;68.01
33286;BME280;19656;50.096;20.014;2024-01-30T04:07:07;100818.65;;;1.17;67.95
33286;BME280;19656;50.096;20.014;2024-01-30T04:12:10;100815.83;;;1.10;67.91
33286;BME280;19656;50.096;20.014;2024-01-30T04:17:13;100813.00;;;1.05;68.22
33286;BME280;19656;50.096;20.014;2024-01-30T04:22:16;100818.61;;;1.07;68.13
33286;BME280;19656;50.096;20.014;2024-01-30T04:27:20;100818.63;;;1.11;68.09
33286;BME280;19656;50.096;20.014;2024-01-30T04:32:23;100819.71;;;1.20;67.87
33286;BME280;19656;50.096;20.014;2024-01-30T04:37:26;100824.80;;;1.23;67.75
33286;BME280;19656;50.096;20.014;2024-01-30T04:42:30;100828.14;;;1.23;67.77
33286;BME280;19656;50.096;20.014;2024-01-30T04:47:33;100826.22;;;1.25;67.78
33286;BME280;19656;50.096;20.014;2024-01-30T04:52:37;100832.70;;;1.30;67.79
33286;BME280;19656;50.096;20.014;2024-01-30T04:57:40;100830.77;;;1.28;67.40
33286;BME280;19656;50.096;20.014;2024-01-30T05:02:43;100824.09;;;1.18;67.54
33286;BME280;19656;50.096;20.014;2024-01-30T05:07:46;100828.26;;;1.12;67.62
33286;BME280;19656;50.096;20.014;2024-01-30T05:12:49;100831.04;;;1.12;67.75
33286;BME280;19656;50.096;20.014;2024-01-30T05:17:53;100841.20;;;1.16;67.56
33286;BME280;19656;50.096;20.014;2024-01-30T05:22:56;100834.23;;;1.19;67.54
33286;BME280;19656;50.096;20.014;2024-01-30T05:27:59;100833.02;;;1.19;67.54
33286;BME280;19656;50.096;20.014;2024-01-30T05:33:02;100832.12;;;1.18;67.37
33286;BME280;19656;50.096;20.014;2024-01-30T05:38:07;100831.23;;;1.14;67.32
33286;BME280;19656;50.096;20.014;2024-01-30T05:43:10;100827.55;;;1.15;67.42
33286;BME280;19656;50.096;20.014;2024-01-30T05:48:13;100837.34;;;1.13;67.46
33286;BME280;19656;50.096;20.014;2024-01-30T05:53:16;100832.60;;;1.11;67.38
33286;BME280;19656;50.096;20.014;2024-01-30T05:58:19;100836.78;;;1.08;67.63
33286;BME280;19656;50.096;20.014;2024-01-30T06:03:22;100838.19;;;1.05;67.52
33286;BME280;19656;50.096;20.014;2024-01-30T06:08:26;100830.98;;;1.02;67.64
33286;BME280;19656;50.096;20.014;2024-01-30T06:13:29;100839.55;;;1.00;67.75
33286;BME280;19656;50.096;20.014;2024-01-30T06:18:34;100844.83;;;1.07;67.72
33286;BME280;19656;50.096;20.014;2024-01-30T06:23:37;100844.27;;;1.03;67.83
33286;BME280;19656;50.096;20.014;2024-01-30T06:28:41;100837.13;;;1.07;67.67
33286;BME280;19656;50.096;20.014;2024-01-30T06:33:49;100838.48;;;1.33;70.92
33286;BME280;19656;50.096;20.014;2024-01-30T06:38:52;100835.06;;;1.51;67.96
33286;BME280;19656;50.096;20.014;2024-01-30T06:43:56;100834.20;;;1.52;67.46
33286;BME280;19656;50.096;20.014;2024-01-30T06:48:59;100836.64;;;1.53;67.35
33286;BME280;19656;50.096;20.014;2024-01-30T06:54:03;100841.35;;;1.49;66.97
33286;BME280;19656;50.096;20.014;2024-01-30T06:59:06;100844.50;;;1.48;67.47
33286;BME280;19656;50.096;20.014;2024-01-30T07:04:09;100841.34;;;1.44;67.25
33286;BME280;19656;50.096;20.014;2024-01-30T07:09:13;100836.96;;;1.43;67.48
33286;BME280;19656;50.096;20.014;2024-01-30T07:14:16;100828.21;;;1.41;67.68
33286;BME280;19656;50.096;20.014;2024-01-30T07:19:20;100829.95;;;1.37;67.94
33286;BME280;19656;50.096;20.014;2024-01-30T07:24:24;100834.33;;;1.40;68.00
33286;BME280;19656;50.096;20.014;2024-01-30T07:29:27;100843.08;;;1.42;68.36
33286;BME280;19656;50.096;20.014;2024-01-30T07:34:30;100841.37;;;1.53;68.72
33286;BME280;19656;50.096;20.014;2024-01-30T07:39:36;100844.91;;;1.65;68.70
33286;BME280;19656;50.096;20.014;2024-01-30T07:44:39;100840.22;;;1.78;69.10
33286;BME280;19656;50.096;20.014;2024-01-30T07:49:43;100839.39;;;1.91;68.60
33286;BME280;19656;50.096;20.014;2024-01-30T07:54:46;100836.08;;;1.97;68.65
33286;BME280;19656;50.096;20.014;2024-01-30T07:59:49;100836.97;;;2.11;68.62
33286;BME280;19656;50.096;20.014;2024-01-30T08:04:52;100833.83;;;2.23;68.72
33286;BME280;19656;50.096;20.014;2024-01-30T08:09:56;100839.10;;;2.41;68.83
33286;BME280;19656;50.096;20.014;2024-01-30T08:14:59;100838.05;;;2.53;68.98
33286;BME280;19656;50.096;20.014;2024-01-30T08:20:02;100840.16;;;2.63;69.04
33286;BME280;19656;50.096;20.014;2024-01-30T08:25:08;100838.56;;;2.75;69.15
33286;BME280;19656;50.096;20.014;2024-01-30T08:30:13;100841.34;;;2.86;69.19
33286;BME280;19656;50.096;20.014;2024-01-30T08:35:16;100843.78;;;2.98;69.19
33286;BME280;19656;50.096;20.014;2024-01-30T08:40:20;100836.73;;;3.10;69.38
33286;BME280;19656;50.096;20.014;2024-01-30T08:45:23;100839.52;;;3.22;69.75
33286;BME280;19656;50.096;20.014;2024-01-30T08:50:27;100835.23;;;3.43;69.55
33286;BME280;19656;50.096;20.014;2024-01-30T08:55:30;100834.25;;;3.65;69.44
33286;BME280;19656;50.096;20.014;2024-01-30T09:00:33;100826.64;;;3.78;68.97
33286;BME280;19656;50.096;20.014;2024-01-30T09:05:37;100826.92;;;3.89;68.79
33286;BME280;19656;50.096;20.014;2024-01-30T09:10:40;100828.95;;;4.02;68.74
33286;BME280;19656;50.096;20.014;2024-01-30T09:15:44;100826.04;;;4.18;68.70
33286;BME280;19656;50.096;20.014;2024-01-30T09:20:47;100824.67;;;4.34;68.56
33286;BME280;19656;50.096;20.014;2024-01-30T09:25:50;100818.74;;;4.51;68.47
33286;BME280;19656;50.096;20.014;2024-01-30T09:30:54;100811.38;;;4.70;68.31
33286;BME280;19656;50.096;20.014;2024-01-30T09:35:57;100803.05;;;4.93;68.08
33286;BME280;19656;50.096;20.014;2024-01-30T09:41:03;100805.34;;;5.24;67.97
33286;BME280;19656;50.096;20.014;2024-01-30T09:46:12;100799.06;;;5.88;69.72
33286;BME280;19656;50.096;20.014;2024-01-30T09:51:19;100795.69;;;6.04;66.91
33286;BME280;19656;50.096;20.014;2024-01-30T09:56:23;100791.98;;;6.16;66.51
33286;BME280;19656;50.096;20.014;2024-01-30T10:01:26;100788.20;;;6.31;64.13
33286;BME280;19656;50.096;20.014;2024-01-30T10:06:30;100778.35;;;6.60;63.75
33286;BME280;19656;50.096;20.014;2024-01-30T10:11:33;100771.02;;;6.85;60.48
33286;BME280;19656;50.096;20.014;2024-01-30T10:16:36;100765.67;;;6.97;57.99
33286;BME280;19656;50.096;20.014;2024-01-30T10:21:40;100756.25;;;7.18;57.69
33286;BME280;19656;50.096;20.014;2024-01-30T10:26:43;100748.92;;;7.39;56.49
33286;BME280;19656;50.096;20.014;2024-01-30T10:32:00;100742.47;;;7.60;55.32
33286;BME280;19656;50.096;20.014;2024-01-30T10:37:09;100736.64;;;7.90;54.49
33286;BME280;19656;50.096;20.014;2024-01-30T10:42:19;100730.10;;;8.20;54.23
33286;BME280;19656;50.096;20.014;2024-01-30T10:47:26;100721.98;;;8.61;54.78
33286;BME280;19656;50.096;20.014;2024-01-30T10:52:31;100715.05;;;8.94;54.06
33286;BME280;19656;50.096;20.014;2024-01-30T10:57:35;100708.48;;;9.07;51.83
33286;BME280;19656;50.096;20.014;2024-01-30T11:02:40;100701.17;;;9.21;51.49
33286;BME280;19656;50.096;20.014;2024-01-30T11:07:44;100695.06;;;9.47;51.06
33286;BME280;19656;50.096;20.014;2024-01-30T11:12:48;100689.23;;;9.69;50.64
33286;BME280;19656;50.096;20.014;2024-01-30T11:17:53;100684.64;;;9.96;50.00
33286;BME280;19656;50.096;20.014;2024-01-30T11:22:57;100679.60;;;10.14;48.94
33286;BME280;19656;50.096;20.014;2024-01-30T11:28:01;100677.48;;;10.30;48.12
33286;BME280;19656;50.096;20.014;2024-01-30T11:33:06;100672.70;;;10.51;47.89
33286;BME280;19656;50.096;20.014;2024-01-30T11:38:13;100665.96;;;10.60;46.92
33286;BME280;19656;50.096;20.014;2024-01-30T11:43:17;100660.36;;;10.78;46.61
33286;BME280;19656;50.096;20.014;2024-01-30T11:48:21;100659.25;;;10.93;45.37
33286;BME280;19656;50.096;20.014;2024-01-30T11:53:25;100655.32;;;11.08;45.70
33286;BME280;19656;50.096;20.014;2024-01-30T11:58:28;100649.47;;;11.31;45.29
33286;BME280;19656;50.096;20.014;2024-01-30T12:03:32;100644.05;;;11.55;44.22
33286;BME280;19656;50.096;20.014;2024-01-30T12:08:35;100633.61;;;11.76;42.81
33286;BME280;19656;50.096;20.014;2024-01-30T12:13:38;100633.13;;;12.05;43.05
33286;BME280;19656;50.096;20.014;2024-01-30T12:18:42;100624.63;;;12.33;42.12
33286;BME280;19656;50.096;20.014;2024-01-30T12:23:45;100617.67;;;12.57;41.07
33286;BME280;19656;50.096;20.014;2024-01-30T12:28:49;100615.91;;;12.81;40.17
33286;BME280;19656;50.096;20.014;2024-01-30T12:33:53;100619.58;;;12.93;40.16
33286;BME280;19656;50.096;20.014;2024-01-30T12:38:56;100612.98;;;13.05;40.37
33286;BME280;19656;50.096;20.014;2024-01-30T12:44:01;100611.49;;;13.07;40.73
33286;BME280;19656;50.096;20.014;2024-01-30T12:49:04;100615.40;;;13.03;40.94
33286;BME280;19656;50.096;20.014;2024-01-30T12:54:08;100615.39;;;12.96;43.10
33286;BME280;19656;50.096;20.014;2024-01-30T12:59:11;100612.79;;;12.79;44.35
33286;BME280;19656;50.096;20.014;2024-01-30T13:04:15;100607.13;;;12.58;45.79
33286;BME280;19656;50.096;20.014;2024-01-30T13:09:19;100601.08;;;12.34;46.40
33286;BME280;19656;50.096;20.014;2024-01-30T13:14:24;100592.63;;;12.04;46.90
33286;BME280;19656;50.096;20.014;2024-01-30T13:19:27;100588.23;;;11.81;47.86
33286;BME280;19656;50.096;20.014;2024-01-30T13:24:31;100585.41;;;12.25;54.70
33286;BME280;19656;50.096;20.014;2024-01-30T13:29:34;100583.27;;;13.00;51.37
33286;BME280;19656;50.096;20.014;2024-01-30T13:34:37;100576.33;;;13.41;50.13
33286;BME280;19656;50.096;20.014;2024-01-30T13:39:41;100577.64;;;13.40;46.73
33286;BME280;19656;50.096;20.014;2024-01-30T13:44:44;100583.44;;;12.82;46.19
33286;BME280;19656;50.096;20.014;2024-01-30T13:49:48;100582.24;;;12.41;46.45
33286;BME280;19656;50.096;20.014;2024-01-30T13:54:51;100584.50;;;12.15;46.59
33286;BME280;19656;50.096;20.014;2024-01-30T13:59:55;100583.55;;;11.91;47.02
33286;BME280;19656;50.096;20.014;2024-01-30T14:04:58;100585.15;;;11.69;47.55
33286;BME280;19656;50.096;20.014;2024-01-30T14:10:01;100578.91;;;11.44;47.75
33286;BME280;19656;50.096;20.014;2024-01-30T14:15:10;100578.30;;;11.20;47.95
33286;BME280;19656;50.096;20.014;2024-01-30T14:20:30;100576.65;;;10.98;47.92
33286;BME280;19656;50.096;20.014;2024-01-30T14:25:34;100578.70;;;10.77;48.30
33286;BME280;19656;50.096;20.014;2024-01-30T14:30:38;100577.43;;;10.59;48.63
33286;BME280;19656;50.096;20.014;2024-01-30T14:35:41;100574.46;;;10.44;48.96
33286;BME280;19656;50.096;20.014;2024-01-30T14:40:44;100571.81;;;10.29;49.32
33286;BME280;19656;50.096;20.014;2024-01-30T14:45:47;100570.59;;;10.13;49.47
33286;BME280;19656;50.096;20.014;2024-01-30T14:50:52;100571.48;;;9.97;49.97
33286;BME280;19656;50.096;20.014;2024-01-30T14:55:55;100566.88;;;9.81;50.63
33286;BME280;19656;50.096;20.014;2024-01-30T15:00:59;100567.46;;;9.70;50.81
33286;BME280;19656;50.096;20.014;2024-01-30T15:06:02;100565.81;;;9.56;50.90
33286;BME280;19656;50.096;20.014;2024-01-30T15:11:07;100566.60;;;9.37;51.39
33286;BME280;19656;50.096;20.014;2024-01-30T15:16:11;100567.36;;;9.19;52.29
33286;BME280;19656;50.096;20.014;2024-01-30T15:21:14;100571.39;;;9.09;52.07
33286;BME280;19656;50.096;20.014;2024-01-30T15:26:23;100573.64;;;8.88;52.20
33286;BME280;19656;50.096;20.014;2024-01-30T15:31:26;100569.42;;;8.63;53.26
33286;BME280;19656;50.096;20.014;2024-01-30T15:36:29;100571.59;;;8.43;53.55
33286;BME280;19656;50.096;20.014;2024-01-30T15:41:33;100576.21;;;8.22;53.72
33286;BME280;19656;50.096;20.014;2024-01-30T15:46:36;100567.99;;;8.12;54.34
33286;BME280;19656;50.096;20.014;2024-01-30T15:51:40;100567.42;;;7.95;54.54
33286;BME280;19656;50.096;20.014;2024-01-30T15:56:43;100569.08;;;7.79;54.90
33286;BME280;19656;50.096;20.014;2024-01-30T16:01:46;100562.50;;;7.60;55.14
33286;BME280;19656;50.096;20.014;2024-01-30T16:06:52;100561.58;;;7.48;56.29
33286;BME280;19656;50.096;20.014;2024-01-30T16:11:55;100555.50;;;7.36;55.67
33286;BME280;19656;50.096;20.014;2024-01-30T16:16:59;100557.35;;;7.18;55.85
33286;BME280;19656;50.096;20.014;2024-01-30T16:22:02;100555.74;;;7.03;56.43
33286;BME280;19656;50.096;20.014;2024-01-30T16:27:05;100554.44;;;6.90;56.46
33286;BME280;19656;50.096;20.014;2024-01-30T16:32:09;100555.85;;;6.83;57.86
33286;BME280;19656;50.096;20.014;2024-01-30T16:37:12;100555.68;;;6.75;57.26
33286;BME280;19656;50.096;20.014;2024-01-30T16:42:16;100559.26;;;6.64;57.45
33286;BME280;19656;50.096;20.014;2024-01-30T16:47:19;100558.60;;;6.53;57.51
33286;BME280;19656;50.096;20.014;2024-01-30T16:52:23;100558.54;;;6.39;57.63
33286;BME280;19656;50.096;20.014;2024-01-30T16:57:27;100554.61;;;6.25;57.80
33286;BME280;19656;50.096;20.014;2024-01-30T17:02:30;100550.73;;;6.16;58.77
33286;BME280;19656;50.096;20.014;2024-01-30T17:07:33;100548.07;;;6.17;58.67
33286;BME280;19656;50.096;20.014;2024-01-30T17:12:38;100551.44;;;6.06;58.69
33286;BME280;19656;50.096;20.014;2024-01-30T17:17:41;100552.21;;;5.93;58.90
33286;BME280;19656;50.096;20.014;2024-01-30T17:22:45;100553.09;;;5.82;59.37
33286;BME280;19656;50.096;20.014;2024-01-30T17:27:49;100547.30;;;5.71;59.48
33286;BME280;19656;50.096;20.014;2024-01-30T17:32:52;100544.98;;;5.63;59.75
33286;BME280;19656;50.096;20.014;2024-01-30T17:37:56;100541.70;;;5.59;60.65
33286;BME280;19656;50.096;20.014;2024-01-30T17:42:59;100544.98;;;5.54;60.42
33286;BME280;19656;50.096;20.014;2024-01-30T17:48:04;100544.59;;;5.45;60.30
33286;BME280;19656;50.096;20.014;2024-01-30T17:53:07;100540.90;;;5.34;60.44
33286;BME280;19656;50.096;20.014;2024-01-30T17:58:10;100543.90;;;5.23;60.58
33286;BME280;19656;50.096;20.014;2024-01-30T18:03:14;100543.89;;;5.11;60.95
33286;BME280;19656;50.096;20.014;2024-01-30T18:08:17;100541.23;;;5.02;61.21
33286;BME280;19656;50.096;20.014;2024-01-30T18:13:20;100540.70;;;4.91;61.42
33286;BME280;19656;50.096;20.014;2024-01-30T18:18:23;100545.27;;;4.78;61.58
33286;BME280;19656;50.096;20.014;2024-01-30T18:23:33;100551.88;;;4.71;62.16
33286;BME280;19656;50.096;20.014;2024-01-30T18:28:37;100548.98;;;4.76;63.76
33286;BME280;19656;50.096;20.014;2024-01-30T18:33:40;100544.23;;;4.78;62.17
33286;BME280;19656;50.096;20.014;2024-01-30T18:38:43;100550.03;;;4.64;62.15
33286;BME280;19656;50.096;20.014;2024-01-30T18:43:46;100544.91;;;4.53;62.25
33286;BME280;19656;50.096;20.014;2024-01-30T18:48:50;100545.91;;;4.43;62.39
33286;BME280;19656;50.096;20.014;2024-01-30T18:53:53;100550.95;;;4.33;62.44
33286;BME280;19656;50.096;20.014;2024-01-30T18:58:56;100555.84;;;4.22;62.63
33286;BME280;19656;50.096;20.014;2024-01-30T19:03:59;100558.04;;;4.14;62.91
33286;BME280;19656;50.096;20.014;2024-01-30T19:09:04;100557.20;;;4.10;63.52
33286;BME280;19656;50.096;20.014;2024-01-30T19:14:10;100557.38;;;4.11;63.99
33286;BME280;19656;50.096;20.014;2024-01-30T19:19:14;100555.30;;;4.07;63.33
33286;BME280;19656;50.096;20.014;2024-01-30T19:24:17;100556.45;;;3.99;63.36
33286;BME280;19656;50.096;20.014;2024-01-30T19:29:20;100562.50;;;3.91;63.48
33286;BME280;19656;50.096;20.014;2024-01-30T19:34:23;100559.73;;;3.87;63.43
33286;BME280;19656;50.096;20.014;2024-01-30T19:39:27;100560.84;;;3.81;63.56
33286;BME280;19656;50.096;20.014;2024-01-30T19:44:31;100559.85;;;3.75;63.72
33286;BME280;19656;50.096;20.014;2024-01-30T19:49:37;100559.56;;;3.69;63.98
33286;BME280;19656;50.096;20.014;2024-01-30T19:54:42;100552.56;;;3.67;64.11
33286;BME280;19656;50.096;20.014;2024-01-30T19:59:45;100553.48;;;3.62;64.06
33286;BME280;19656;50.096;20.014;2024-01-30T20:04:48;100556.18;;;3.55;64.18
33286;BME280;19656;50.096;20.014;2024-01-30T20:09:52;100557.98;;;3.48;64.32
33286;BME280;19656;50.096;20.014;2024-01-30T20:14:55;100560.16;;;3.42;64.57
33286;BME280;19656;50.096;20.014;2024-01-30T20:19:59;100560.52;;;3.39;64.63
33286;BME280;19656;50.096;20.014;2024-01-30T20:25:03;100561.86;;;3.46;66.44
33286;BME280;19656;50.096;20.014;2024-01-30T20:30:21;100559.61;;;3.62;66.87
33286;BME280;19656;50.096;20.014;2024-01-30T20:35:25;100558.77;;;3.60;64.69
33286;BME280;19656;50.096;20.014;2024-01-30T20:40:29;100557.41;;;3.53;64.51
33286;BME280;19656;50.096;20.014;2024-01-30T20:45:32;100554.48;;;3.48;64.51
33286;BME280;19656;50.096;20.014;2024-01-30T20:50:35;100552.56;;;3.46;64.67
33286;BME280;19656;50.096;20.014;2024-01-30T20:55:39;100550.14;;;3.42;64.82
33286;BME280;19656;50.096;20.014;2024-01-30T21:00:42;100549.98;;;3.43;64.70
33286;BME280;19656;50.096;20.014;2024-01-30T21:05:46;100552.45;;;3.40;64.66
33286;BME280;19656;50.096;20.014;2024-01-30T21:10:49;100546.27;;;3.46;64.49
33286;BME280;19656;50.096;20.014;2024-01-30T21:15:52;100544.33;;;3.45;64.42
33286;BME280;19656;50.096;20.014;2024-01-30T21:20:57;100539.55;;;3.51;66.24
33286;BME280;19656;50.096;20.014;2024-01-30T21:26:00;100534.08;;;3.71;65.58
33286;BME280;19656;50.096;20.014;2024-01-30T21:31:09;100535.06;;;3.61;64.22
33286;BME280;19656;50.096;20.014;2024-01-30T21:36:13;100529.77;;;3.45;64.28
33286;BME280;19656;50.096;20.014;2024-01-30T21:41:16;100533.75;;;3.31;64.48
33286;BME280;19656;50.096;20.014;2024-01-30T21:46:26;100535.77;;;3.22;64.75
33286;BME280;19656;50.096;20.014;2024-01-30T21:51:30;100537.40;;;3.13;64.90
33286;BME280;19656;50.096;20.014;2024-01-30T21:56:33;100539.21;;;3.06;65.06
33286;BME280;19656;50.096;20.014;2024-01-30T22:01:37;100537.84;;;3.02;65.24
33286;BME280;19656;50.096;20.014;2024-01-30T22:06:40;100542.77;;;2.98;65.23
33286;BME280;19656;50.096;20.014;2024-01-30T22:11:43;100543.83;;;2.98;65.20
33286;BME280;19656;50.096;20.014;2024-01-30T22:16:46;100544.55;;;2.95;65.25
33286;BME280;19656;50.096;20.014;2024-01-30T22:21:49;100541.09;;;2.89;65.30
33286;BME280;19656;50.096;20.014;2024-01-30T22:26:53;100539.35;;;2.84;65.51
33286;BME280;19656;50.096;20.014;2024-01-30T22:31:56;100539.38;;;2.81;65.57
33286;BME280;19656;50.096;20.014;2024-01-30T22:36:59;100545.71;;;2.78;65.80
33286;BME280;19656;50.096;20.014;2024-01-30T22:42:03;100557.46;;;2.74;65.90
33286;BME280;19656;50.096;20.014;2024-01-30T22:47:06;100561.52;;;2.69;65.99
33286;BME280;19656;50.096;20.014;2024-01-30T22:52:09;100563.64;;;2.67;66.08
33286;BME280;19656;50.096;20.014;2024-01-30T22:57:13;100562.14;;;2.85;65.67
33286;BME280;19656;50.096;20.014;2024-01-30T23:02:16;100562.26;;;2.95;65.35
33286;BME280;19656;50.096;20.014;2024-01-30T23:07:19;100563.73;;;3.11;64.84
33286;BME280;19656;50.096;20.014;2024-01-30T23:12:23;100561.59;;;3.14;64.55
33286;BME280;19656;50.096;20.014;2024-01-30T23:17:26;100558.17;;;3.02;64.55
33286;BME280;19656;50.096;20.014;2024-01-30T23:22:29;100560.02;;;2.89;64.63
33286;BME280;19656;50.096;20.014;2024-01-30T23:27:33;100555.52;;;2.78;64.76
33286;BME280;19656;50.096;20.014;2024-01-30T23:32:36;100556.27;;;2.71;64.74
33286;BME280;19656;50.096;20.014;2024-01-30T23:37:45;100558.23;;;2.62;64.79
33286;BME280;19656;50.096;20.014;2024-01-30T23:42:48;100558.60;;;2.58;65.00
33286;BME280;19656;50.096;20.014;2024-01-30T23:47:51;100561.08;;;2.55;65.28
33286;BME280;19656;50.096;20.014;2024-01-30T23:52:55;100563.36;;;2.51;65.28
33286;BME280;19656;50.096;20.014;2024-01-30T23:57:58;100564.08;;;2.48;65.20
